Time;durP1;ratioP1;P1;durP2;ratioP2;P2;SDS_P1;SDS_P2;PMS_P1;PMS_P2;Temp;Humidity;BMP_temperature;BMP_pressure;BME280_temperature;BME280_humidity;BME280_pressure;Samples;Min_cycle;Max_cycle;Signal;HPM_P1;HPM_P2
2022/12/25 00:00:55;;;;;;;14.95;7.10;;;;;;;;;;5006695;28;20045;-75
2022/12/25 00:03:21;;;;;;;14.82;7.88;;;9.30;99.90;;;;;;5011719;28;20045;-73
2022/12/25 00:05:47;;;;;;;13.70;7.63;;;9.30;99.90;;;;;;4993186;28;20034;-69
2022/12/25 00:08:17;;;;;;;11.18;7.03;;;;;;;;;;4994713;28;20079;-74
2022/12/25 00:10:44;;;;;;;;;;;9.10;99.90;;;;;;5009194;28;20041;-70
2022/12/25 00:13:13;;;;;;;9.45;5.97;;;8.80;99.90;;;;;;5012962;28;20005;-71
2022/12/25 00:15:40;;;;;;;8.60;5.50;;;8.80;99.90;;;;;;5013231;28;20045;-74
2022/12/25 00:18:07;;;;;;;8.27;5.53;;;8.70;99.90;;;;;;5012927;28;20046;-76
2022/12/25 00:20:34;;;;;;;6.85;4.70;;;8.70;99.90;;;;;;5012862;28;20038;-72
2022/12/25 00:23:00;;;;;;;8.13;5.18;;;8.70;99.90;;;;;;4996463;28;20064;-75
2022/12/25 00:25:26;;;;;;;7.25;4.45;;;8.50;99.90;;;;;;5012316;28;20042;-76
2022/12/25 00:27:55;;;;;;;6.35;4.32;;;8.60;99.90;;;;;;5013557;28;20045;-70
2022/12/25 00:30:21;;;;;;;6.55;4.43;;;8.70;99.90;;;;;;5013864;28;20052;-73
2022/12/25 00:32:48;;;;;;;6.68;4.90;;;8.80;99.90;;;;;;4999285;28;20042;-73
2022/12/25 00:35:14;;;;;;;6.55;4.68;;;8.80;99.90;;;;;;5012796;28;20409;-69
2022/12/25 00:37:40;;;;;;;7.45;5.05;;;8.60;99.90;;;;;;5013540;28;20053;-69
2022/12/25 00:40:07;;;;;;;10.38;5.10;;;8.70;99.90;;;;;;5012466;28;20042;-71
2022/12/25 00:42:32;;;;;;;8.32;5.20;;;8.80;99.90;;;;;;5013336;28;20041;-69
2022/12/25 00:45:05;;;;;;;11.07;3.22;;;8.90;99.90;;;;;;5011168;28;20074;-76
2022/12/25 00:47:32;;;;;;;7.63;4.30;;;8.80;99.90;;;;;;5013747;28;20092;-71
2022/12/25 00:49:58;;;;;;;10.00;4.32;;;8.70;99.90;;;;;;4979537;28;20030;-78
2022/12/25 00:52:24;;;;;;;22.40;5.28;;;8.80;99.90;;;;;;5012217;28;20042;-75
2022/12/25 00:54:50;;;;;;;13.25;4.72;;;8.50;99.90;;;;;;4999293;28;20054;-74
2022/12/25 00:57:16;;;;;;;11.05;5.03;;;8.60;99.90;;;;;;5011805;28;20033;-70
2022/12/25 00:59:42;;;;;;;10.30;5.30;;;8.50;99.90;;;;;;5012373;28;20037;-71
2022/12/25 01:02:23;;;;;;;8.05;4.75;;;8.50;99.90;;;;;;4995278;28;20049;-71
2022/12/25 01:04:49;;;;;;;;;;;8.50;99.90;;;;;;5014702;28;20071;-71
2022/12/25 01:07:15;;;;;;;14.20;4.00;;;8.50;99.90;;;;;;5012540;28;19918;-74
2022/12/25 01:12:28;;;;;;;12.80;3.42;;;8.50;99.90;;;;;;5014248;28;20037;-68
2022/12/25 01:14:54;;;;;;;13.52;4.72;;;8.50;99.90;;;;;;4995264;28;20064;-68
2022/12/25 01:17:19;;;;;;;13.50;4.85;;;8.50;99.90;;;;;;4994933;28;20129;-68
2022/12/25 01:19:46;;;;;;;11.00;4.55;;;8.50;99.90;;;;;;5012129;28;20505;-68
2022/12/25 01:22:12;;;;;;;12.45;4.93;;;8.50;99.90;;;;;;5012855;28;20021;-68
2022/12/25 01:24:42;;;;;;;17.38;6.15;;;8.50;99.90;;;;;;4996217;28;20041;-67
2022/12/25 01:27:08;;;;;;;19.50;6.80;;;8.60;99.90;;;;;;5013134;28;20083;-68
2022/12/25 01:29:36;;;;;;;12.40;6.80;;;8.60;99.90;;;;;;5011690;28;20288;-68
2022/12/25 01:32:03;;;;;;;17.55;5.43;;;8.60;99.90;;;;;;5008017;28;20045;-68
2022/12/25 01:34:29;;;;;;;17.85;5.07;;;8.60;99.90;;;;;;4993107;28;20588;-68
2022/12/25 01:36:56;;;;;;;15.15;5.82;;;8.60;99.90;;;;;;5002883;28;20046;-68
2022/12/25 01:39:22;;;;;;;14.50;4.95;;;8.60;99.90;;;;;;5012195;28;20535;-68
2022/12/25 01:41:48;;;;;;;13.75;5.53;;;8.60;99.90;;;;;;5012475;28;20065;-67
2022/12/25 01:44:14;;;;;;;21.92;5.70;;;8.60;99.90;;;;;;5014042;28;20049;-68
2022/12/25 01:46:42;;;;;;;21.92;6.20;;;8.60;99.90;;;;;;5012474;28;20421;-68
2022/12/25 01:49:19;;;;;;;11.60;6.82;;;8.60;99.90;;;;;;5011449;28;20033;-68
2022/12/25 01:52:18;;;;;;;12.35;6.70;;;8.60;99.90;;;;;;5009270;28;20045;-68
2022/12/25 01:54:58;;;;;;;12.45;5.32;;;9.00;99.90;;;;;;5012633;28;20061;-68
2022/12/25 01:57:28;;;;;;;10.85;5.90;;;8.30;99.90;;;;;;5012309;28;20137;-68
2022/12/25 01:59:56;;;;;;;13.52;5.47;;;8.40;99.90;;;;;;5012402;28;20037;-68
2022/12/25 02:02:22;;;;;;;12.10;7.10;;;8.50;99.90;;;;;;5012299;28;20964;-68
2022/12/25 02:04:54;;;;;;;16.73;6.95;;;8.50;99.90;;;;;;5010433;28;20034;-68
2022/12/25 02:07:26;;;;;;;16.02;7.13;;;8.50;99.90;;;;;;4992939;28;20061;-77
2022/12/25 02:09:52;;;;;;;15.38;6.70;;;8.40;99.90;;;;;;4978718;28;20050;-68
2022/12/25 02:12:24;;;;;;;21.42;7.57;;;8.40;99.90;;;;;;5011902;28;20026;-78
2022/12/25 02:14:54;;;;;;;14.55;7.70;;;8.40;99.90;;;;;;4995388;28;20049;-70
2022/12/25 02:17:26;;;;;;;14.77;7.70;;;8.50;99.90;;;;;;4993741;28;20033;-68
2022/12/25 02:20:21;;;;;;;15.48;7.30;;;8.60;99.90;;;;;;5011362;28;20044;-68
2022/12/25 02:23:19;;;;;;;24.50;7.72;;;8.60;99.90;;;;;;5011597;28;20049;-68
2022/12/25 02:26:14;;;;;;;18.80;8.93;;;8.50;99.90;;;;;;4994363;28;20497;-74
2022/12/25 02:28:45;;;;;;;15.13;7.85;;;;;;;;;;4993625;28;20124;-75
2022/12/25 02:31:17;;;;;;;;;;;8.80;99.90;;;;;;5012005;28;20048;-68
2022/12/25 02:34:04;;;;;;;11.88;5.55;;;8.80;99.90;;;;;;5011220;28;19910;-68
2022/12/25 02:36:55;;;;;;;10.68;6.10;;;8.40;99.90;;;;;;4994430;28;20042;-77
2022/12/25 02:39:57;;;;;;;13.90;6.60;;;8.30;99.90;;;;;;4986997;28;20065;-76
2022/12/25 03:12:00;;;;;;;20.48;8.52;;;8.50;99.90;;;;;;5017220;28;20060;-68
2022/12/25 03:17:11;;;;;;;26.38;10.02;;;8.60;99.90;;;;;;5014601;28;20176;-68
2022/12/25 03:28:05;;;;;;;22.30;11.32;;;8.70;99.90;;;;;;5013877;28;20040;-68
2022/12/25 03:31:11;;;;;;;19.40;9.90;;;8.70;99.90;;;;;;4997351;28;20049;-68
2022/12/25 03:35:21;;;;;;;18.45;9.43;;;8.70;99.90;;;;;;4991114;28;20096;-68
2022/12/25 03:36:44;;;;;;;21.73;10.80;;;8.70;99.90;;;;;;5014593;28;20053;-67
2022/12/25 04:37:34;;;;;;;17.17;9.40;;;8.50;99.90;;;;;;5013039;28;20091;-68
2022/12/25 04:40:00;;;;;;;30.25;8.40;;;8.40;99.90;;;;;;4989984;28;20042;-67
2022/12/25 04:42:25;;;;;;;18.08;9.57;;;8.50;99.90;;;;;;5013220;28;20572;-68
2022/12/25 04:44:51;;;;;;;19.15;7.60;;;8.50;99.90;;;;;;5013107;28;20045;-68
2022/12/25 04:47:17;;;;;;;15.70;8.88;;;8.40;99.90;;;;;;5013770;28;20130;-68
2022/12/25 04:49:47;;;;;;;22.48;8.40;;;8.40;99.90;;;;;;4995918;28;20468;-68
2022/12/25 04:52:13;;;;;;;17.15;9.00;;;8.50;99.90;;;;;;5013010;28;20045;-68
2022/12/25 04:54:40;;;;;;;15.50;8.48;;;8.40;99.90;;;;;;4995164;28;20104;-68
2022/12/25 04:57:06;;;;;;;17.10;8.20;;;8.40;99.90;;;;;;5013188;28;20150;-68
2022/12/25 04:59:36;;;;;;;20.35;6.90;;;8.40;99.90;;;;;;5010501;28;20089;-67
2022/12/25 05:02:02;;;;;;;14.25;7.82;;;8.40;99.90;;;;;;5012180;28;20070;-67
2022/12/25 05:04:30;;;;;;;20.05;7.57;;;8.30;99.90;;;;;;5013829;28;20096;-68
2022/12/25 05:06:56;;;;;;;19.52;6.93;;;8.40;99.90;;;;;;4976540;28;20133;-69
2022/12/25 05:09:24;;;;;;;13.68;7.40;;;8.20;99.90;;;;;;4994861;28;20050;-67
2022/12/25 05:11:51;;;;;;;19.90;6.13;;;8.10;99.90;;;;;;5013036;28;20096;-68
2022/12/25 05:14:17;;;;;;;12.57;6.60;;;8.10;99.90;;;;;;5012529;28;20046;-68
2022/12/25 05:16:44;;;;;;;11.75;7.35;;;8.10;99.90;;;;;;5013025;28;20038;-68
2022/12/25 05:19:10;;;;;;;12.25;7.20;;;8.00;99.90;;;;;;4995176;28;20500;-68
2022/12/25 05:21:36;;;;;;;15.85;6.82;;;8.00;99.90;;;;;;4995311;28;20048;-68
2022/12/25 05:24:04;;;;;;;10.95;6.90;;;8.10;99.90;;;;;;4994787;28;20046;-68
2022/12/25 05:26:34;;;;;;;13.05;7.10;;;8.10;99.90;;;;;;4995805;28;20067;-68
2022/12/25 05:29:05;;;;;;;15.93;6.27;;;8.10;99.90;;;;;;5012389;28;20045;-68
2022/12/25 05:31:31;;;;;;;11.55;6.72;;;8.10;99.90;;;;;;5012213;28;20288;-68
2022/12/25 05:33:57;;;;;;;16.25;6.32;;;8.00;99.90;;;;;;5012416;28;20069;-68
2022/12/25 05:36:24;;;;;;;14.25;6.25;;;8.00;99.90;;;;;;5012307;28;20053;-68
2022/12/25 05:38:50;;;;;;;17.13;5.40;;;8.10;99.90;;;;;;5012320;28;20088;-67
2022/12/25 05:41:16;;;;;;;9.65;6.05;;;7.90;99.90;;;;;;5013646;28;20049;-67
2022/12/25 05:43:43;;;;;;;21.67;5.85;;;7.90;99.90;;;;;;5014642;28;20569;-67
2022/12/25 05:46:10;;;;;;;11.88;6.82;;;8.00;99.90;;;;;;5012250;28;20026;-68
2022/12/25 05:48:37;;;;;;;17.65;7.63;;;8.00;99.90;;;;;;5012285;28;20048;-68
2022/12/25 05:51:09;;;;;;;15.77;7.35;;;8.00;99.90;;;;;;5012218;28;20046;-68
2022/12/25 05:53:39;;;;;;;15.55;8.05;;;8.00;99.90;;;;;;5014082;28;20477;-68
2022/12/25 05:56:08;;;;;;;16.95;8.55;;;8.00;99.90;;;;;;5014280;28;20050;-67
2022/12/25 05:58:36;;;;;;;13.30;7.68;;;7.90;99.90;;;;;;5014095;28;20038;-68
2022/12/25 06:01:02;;;;;;;16.17;5.88;;;8.00;99.90;;;;;;4980273;28;20069;-67
2022/12/25 06:03:28;;;;;;;19.70;5.65;;;8.00;99.90;;;;;;4994408;28;20046;-68
2022/12/25 06:05:54;;;;;;;12.50;7.28;;;8.10;99.90;;;;;;5012034;28;20038;-68
2022/12/25 06:08:20;;;;;;;12.80;7.20;;;8.00;99.90;;;;;;5011392;28;20053;-68
2022/12/25 06:10:46;;;;;;;10.60;6.82;;;8.10;99.90;;;;;;4994034;28;20125;-69
2022/12/25 06:13:12;;;;;;;10.85;6.32;;;8.10;99.90;;;;;;5011821;28;20107;-68
2022/12/25 06:15:43;;;;;;;12.55;6.15;;;7.90;99.90;;;;;;4995405;28;20046;-68
2022/12/25 06:18:09;;;;;;;9.43;5.68;;;8.00;99.90;;;;;;5011290;28;20049;-68
2022/12/25 06:20:35;;;;;;;9.38;5.82;;;8.10;99.90;;;;;;5011481;28;20041;-67
2022/12/25 06:23:03;;;;;;;9.18;5.57;;;8.00;99.90;;;;;;4997958;28;20152;-68
2022/12/25 06:25:30;;;;;;;18.25;4.93;;;8.00;99.90;;;;;;5011730;28;20071;-68
2022/12/25 06:27:56;;;;;;;14.13;5.40;;;;;;;;;;5010974;28;20029;-67
2022/12/25 06:30:22;;;;;;;16.73;5.25;;;7.70;99.90;;;;;;5011367;28;20416;-67
2022/12/25 06:32:49;;;;;;;10.98;4.85;;;7.70;99.90;;;;;;5011302;28;20042;-67
2022/12/25 06:35:15;;;;;;;10.30;3.78;;;7.70;99.90;;;;;;5010992;28;20060;-67
2022/12/25 06:37:41;;;;;;;8.40;3.78;;;7.70;99.90;;;;;;5011124;28;20068;-67
2022/12/25 06:40:07;;;;;;;4.57;2.92;;;7.60;99.90;;;;;;4993646;28;20050;-67
2022/12/25 06:42:33;;;;;;;6.25;3.75;;;7.50;99.90;;;;;;5011528;28;20034;-68
2022/12/25 06:45:00;;;;;;;6.18;3.88;;;7.50;99.90;;;;;;5011641;28;20448;-70
2022/12/25 06:47:27;;;;;;;5.38;3.65;;;7.60;99.90;;;;;;4993609;28;20133;-68
2022/12/25 06:49:54;;;;;;;6.28;3.40;;;7.60;99.90;;;;;;4994644;28;20048;-69
2022/12/25 06:52:20;;;;;;;8.00;3.50;;;7.60;99.90;;;;;;4995067;28;20038;-68
2022/12/25 06:54:46;;;;;;;6.00;3.80;;;7.60;99.90;;;;;;5011520;28;20104;-67
2022/12/25 06:57:12;;;;;;;9.15;2.92;;;7.60;99.90;;;;;;4993154;28;20045;-68
2022/12/25 06:59:38;;;;;;;9.68;3.53;;;7.70;99.90;;;;;;4993523;28;20053;-68
2022/12/25 07:02:05;;;;;;;9.05;4.35;;;7.60;99.90;;;;;;4993302;28;20038;-68
2022/12/25 07:04:41;;;;;;;10.32;2.50;;;7.70;99.90;;;;;;5010879;28;20049;-68
2022/12/25 07:07:08;;;;;;;8.23;4.55;;;7.70;99.90;;;;;;5010737;28;20520;-77
2022/12/25 07:09:34;;;;;;;10.15;6.10;;;7.70;99.90;;;;;;5011354;28;20120;-68
2022/12/25 07:12:20;;;;;;;7.05;3.08;;;7.70;99.90;;;;;;5011966;28;20033;-68
2022/12/25 07:14:48;;;;;;;16.38;2.88;;;7.70;99.90;;;;;;5012471;28;20057;-75
2022/12/25 07:17:15;;;;;;;8.40;4.07;;;7.60;99.90;;;;;;4994183;28;20128;-67
2022/12/25 07:19:41;;;;;;;6.85;3.20;;;7.60;99.90;;;;;;5011594;28;20050;-68
2022/12/25 07:22:06;;;;;;;11.05;3.03;;;7.60;99.90;;;;;;4993508;28;20133;-76
2022/12/25 07:24:32;;;;;;;10.63;3.38;;;7.60;99.90;;;;;;5011637;28;20108;-68
2022/12/25 07:26:58;;;;;;;6.13;3.83;;;7.50;99.90;;;;;;4995531;28;20037;-69
2022/12/25 07:29:24;;;;;;;5.05;3.47;;;7.60;99.90;;;;;;5014913;28;20034;-68
2022/12/25 07:31:49;;;;;;;10.65;4.05;;;7.70;99.90;;;;;;4996888;28;20042;-68
2022/12/25 07:34:18;;;;;;;6.68;4.35;;;7.70;99.90;;;;;;5016150;28;20797;-72
2022/12/25 07:36:47;;;;;;;9.68;3.50;;;7.70;99.90;;;;;;5016208;28;20128;-71
2022/12/25 07:39:13;;;;;;;9.35;3.65;;;7.70;99.90;;;;;;4996856;28;20084;-70
2022/12/25 07:41:39;;;;;;;6.47;3.80;;;7.60;99.90;;;;;;5014804;28;20045;-76
2022/12/25 07:44:04;;;;;;;6.65;3.97;;;7.50;99.90;;;;;;5015211;28;20072;-67
2022/12/25 07:46:32;;;;;;;5.00;3.53;;;7.30;99.90;;;;;;5016157;28;20061;-67
2022/12/25 07:48:57;;;;;;;5.03;3.28;;;7.20;99.90;;;;;;5013242;28;20055;-67
2022/12/25 07:51:23;;;;;;;4.68;3.17;;;7.30;99.90;;;;;;5013852;28;20041;-67
2022/12/25 07:53:49;;;;;;;7.43;3.35;;;7.20;99.90;;;;;;5014363;28;20041;-67
2022/12/25 07:56:18;;;;;;;3.80;2.83;;;7.10;99.90;;;;;;5015095;28;20057;-67
2022/12/25 07:58:44;;;;;;;5.03;3.00;;;7.00;99.90;;;;;;5015150;28;20042;-66
2022/12/25 08:01:23;;;;;;;4.10;2.90;;;6.90;99.90;;;;;;5013760;28;20401;-67
2022/12/25 08:03:58;;;;;;;5.28;2.88;;;6.80;99.90;;;;;;5013774;28;20091;-67
2022/12/25 08:06:28;;;;;;;4.60;2.97;;;6.70;99.90;;;;;;5013307;28;20053;-71
2022/12/25 08:08:55;;;;;;;4.10;3.20;;;6.70;99.90;;;;;;5014279;28;20042;-67
2022/12/25 08:11:21;;;;;;;4.38;2.70;;;6.70;99.90;;;;;;5013691;28;20037;-67
2022/12/25 08:13:47;;;;;;;3.95;2.75;;;6.80;99.90;;;;;;5014076;28;20038;-73
2022/12/25 08:16:12;;;;;;;4.78;2.85;;;7.00;99.90;;;;;;5012610;28;20061;-67
2022/12/25 08:18:39;;;;;;;4.03;2.75;;;7.20;99.90;;;;;;5014113;28;20057;-73
2022/12/25 08:21:10;;;;;;;3.65;2.33;;;7.30;99.90;;;;;;5012570;28;20493;-71
2022/12/25 08:23:39;;;;;;;3.38;2.47;;;7.50;99.90;;;;;;5013951;28;20034;-72
2022/12/25 08:26:07;;;;;;;4.63;2.75;;;7.80;99.90;;;;;;5013764;28;20045;-72
2022/12/25 08:28:34;;;;;;;3.97;2.67;;;8.10;99.90;;;;;;4993895;28;20121;-73
2022/12/25 08:31:09;;;;;;;25.40;12.52;;;8.10;99.90;;;;;;5012448;28;20087;-73
2022/12/25 08:33:36;;;;;;;8.48;5.15;;;8.20;99.90;;;;;;5026962;28;20436;-70
2022/12/25 08:36:07;;;;;;;5.22;3.65;;;8.00;99.90;;;;;;5026794;28;20064;-70
2022/12/25 08:38:32;;;;;;;;;;;8.00;99.90;;;;;;5002271;28;20520;-75
2022/12/25 08:40:58;;;;;;;6.53;4.57;;;8.20;99.90;;;;;;5013899;28;19909;-76
2022/12/25 08:43:24;;;;;;;9.32;6.07;;;8.20;99.90;;;;;;5014495;28;20045;-71
2022/12/25 08:45:50;;;;;;;8.57;6.45;;;8.10;99.90;;;;;;5012531;28;20117;-71
2022/12/25 08:48:15;;;;;;;19.65;10.88;;;8.00;99.90;;;;;;5012992;28;20037;-75
2022/12/25 08:50:46;;;;;;;8.85;5.40;;;7.90;99.90;;;;;;5012996;28;20064;-72
2022/12/25 08:53:13;;;;;;;6.88;3.63;;;7.80;99.90;;;;;;5012030;28;20037;-77
2022/12/25 08:55:38;;;;;;;7.80;2.88;;;7.50;99.90;;;;;;5012513;28;20128;-68
2022/12/25 08:58:04;;;;;;;5.68;3.10;;;7.40;99.90;;;;;;5012610;28;20122;-70
2022/12/25 09:00:30;;;;;;;8.18;2.53;;;7.20;99.90;;;;;;4995129;28;20072;-70
2022/12/25 09:02:56;;;;;;;5.82;2.90;;;7.10;99.90;;;;;;4978082;28;20074;-72
2022/12/25 09:05:22;;;;;;;8.00;3.40;;;7.00;99.90;;;;;;5011134;28;20045;-67
2022/12/25 09:07:47;;;;;;;7.63;3.58;;;7.00;99.90;;;;;;5007193;28;20467;-73
2022/12/25 09:10:13;;;;;;;4.65;3.00;;;7.10;99.90;;;;;;5012299;28;20069;-77
2022/12/25 09:12:39;;;;;;;4.28;3.00;;;7.40;99.90;;;;;;4995188;28;20153;-76
2022/12/25 09:15:09;;;;;;;9.32;5.40;;;7.70;99.90;;;;;;4994052;28;20049;-66
2022/12/25 09:17:35;;;;;;;7.07;4.15;;;8.40;99.90;;;;;;5012883;28;20048;-75
2022/12/25 09:20:01;;;;;;;7.70;3.83;;;8.30;99.90;;;;;;5012516;28;20033;-77
2022/12/25 09:22:27;;;;;;;7.00;4.72;;;7.70;99.90;;;;;;5012056;28;20493;-77
2022/12/25 09:24:53;;;;;;;37.05;17.35;;;7.70;99.90;;;;;;5011735;28;20076;-76
2022/12/25 09:27:19;;;;;;;7.43;5.32;;;7.90;99.90;;;;;;5012256;28;20049;-77
2022/12/25 09:29:44;;;;;;;7.05;4.63;;;8.00;99.90;;;;;;5011555;28;20389;-77
2022/12/25 09:32:10;;;;;;;9.50;4.85;;;7.90;99.90;;;;;;4994844;28;20131;-75
2022/12/25 09:34:37;;;;;;;12.38;6.88;;;7.80;99.90;;;;;;5012388;28;20108;-77
2022/12/25 09:37:06;;;;;;;9.07;6.07;;;7.90;99.90;;;;;;5014829;28;20053;-77
2022/12/25 09:39:32;;;;;;;8.32;5.53;;;8.00;99.90;;;;;;5012900;28;20099;-73
2022/12/25 09:42:08;;;;;;;5.50;3.97;;;8.00;99.90;;;;;;5012897;28;20124;-78
2022/12/25 09:44:39;;;;;;;6.78;4.63;;;8.10;99.90;;;;;;5012763;28;20049;-78
2022/12/25 09:47:13;;;;;;;11.93;5.70;;;8.20;99.90;;;;;;5012765;28;20042;-74
2022/12/25 09:49:52;;;;;;;14.10;4.32;;;8.10;99.90;;;;;;4995753;28;20045;-77
2022/12/25 09:52:34;;;;;;;13.80;3.53;;;8.10;99.90;;;;;;5012320;28;20555;-77
2022/12/25 09:55:13;;;;;;;6.07;3.72;;;8.20;99.90;;;;;;5012862;28;20061;-77
2022/12/25 09:57:42;;;;;;;5.68;3.58;;;8.20;99.90;;;;;;4994995;28;20045;-78
2022/12/25 10:00:20;;;;;;;6.30;4.57;;;8.30;99.90;;;;;;4995961;28;20136;-75
2022/12/25 10:03:24;;;;;;;6.93;4.68;;;8.20;99.90;;;;;;5012163;28;20125;-73
2022/12/25 10:06:08;;;;;;;6.20;4.18;;;;;;;;;;5012562;28;20401;-72
2022/12/25 10:09:01;;;;;;;5.80;3.97;;;8.40;99.90;;;;;;5012767;28;20081;-75
2022/12/25 10:11:39;;;;;;;6.88;4.38;;;8.40;99.90;;;;;;4994939;28;20037;-78
2022/12/25 10:14:52;;;;;;;5.47;3.65;;;8.40;99.90;;;;;;4995493;28;20041;-77
2022/12/25 10:17:19;;;;;;;4.70;3.70;;;8.40;99.90;;;;;;5012001;28;20050;-71
2022/12/25 10:20:07;;;;;;;5.50;3.47;;;8.60;99.90;;;;;;5012402;28;20048;-77
2022/12/25 10:22:55;;;;;;;5.85;3.72;;;8.50;99.90;;;;;;5012148;28;20040;-79
2022/12/25 10:25:23;;;;;;;5.68;4.18;;;8.50;99.90;;;;;;5011832;28;20060;-77
2022/12/25 10:28:10;;;;;;;5.60;3.72;;;8.40;99.90;;;;;;5011984;28;20059;-75
2022/12/25 10:30:41;;;;;;;5.38;3.58;;;8.50;99.90;;;;;;5011777;28;20042;-78
2022/12/25 10:33:10;;;;;;;5.63;3.10;;;8.60;99.90;;;;;;4994324;28;20045;-77
2022/12/25 10:35:37;;;;;;;5.80;3.92;;;8.90;99.90;;;;;;5012069;28;20144;-76
2022/12/25 10:38:11;;;;;;;6.43;3.90;;;9.20;99.90;;;;;;5011904;28;20026;-76
2022/12/25 10:40:59;;;;;;;6.50;4.25;;;9.50;99.90;;;;;;5012115;28;20523;-76
2022/12/25 10:43:56;;;;;;;7.18;4.38;;;9.50;99.90;;;;;;4993920;28;20405;-77
2022/12/25 10:46:26;;;;;;;6.88;4.70;;;9.70;99.90;;;;;;5005982;28;20380;-76
2022/12/25 10:49:01;;;;;;;7.57;4.57;;;9.80;99.90;;;;;;5012301;28;20038;-73
2022/12/25 10:51:41;;;;;;;6.35;4.38;;;9.70;99.90;;;;;;5011678;28;20125;-77
2022/12/25 10:54:21;;;;;;;5.93;4.28;;;9.90;99.90;;;;;;4994388;28;20120;-74
2022/12/25 10:57:00;;;;;;;5.68;4.22;;;10.00;99.90;;;;;;5012117;28;20042;-76
2022/12/25 10:59:33;;;;;;;6.00;3.22;;;10.20;99.90;;;;;;5011471;28;20038;-70
2022/12/25 11:02:20;;;;;;;6.25;4.10;;;10.60;99.90;;;;;;4995618;28;20096;-77
2022/12/25 11:04:46;;;;;;;5.55;3.30;;;10.20;99.90;;;;;;5015589;28;20042;-73
2022/12/25 11:07:18;;;;;;;6.18;4.07;;;10.70;99.90;;;;;;5015317;28;20485;-76
2022/12/25 11:09:57;;;;;;;7.32;4.03;;;10.70;99.90;;;;;;4997909;28;20539;-75
2022/12/25 11:12:30;;;;;;;4.47;3.78;;;10.70;99.90;;;;;;5015423;28;20366;-77
2022/12/25 11:14:59;;;;;;;5.28;3.90;;;10.90;99.90;;;;;;5015472;28;20049;-74
2022/12/25 11:17:27;;;;;;;6.20;3.83;;;11.00;99.90;;;;;;5015148;28;20531;-75
2022/12/25 11:20:00;;;;;;;6.70;4.10;;;11.20;99.90;;;;;;4998056;28;20140;-75
2022/12/25 11:22:27;;;;;;;5.57;4.00;;;11.40;99.90;;;;;;4998082;28;20085;-77
2022/12/25 11:25:10;;;;;;;5.32;3.45;;;11.60;99.90;;;;;;4997705;28;20037;-77
2022/12/25 11:27:36;;;;;;;5.18;3.58;;;11.20;99.90;;;;;;5016603;28;20045;-71
2022/12/25 11:30:06;;;;;;;5.22;3.58;;;11.70;99.90;;;;;;4998849;28;20049;-77
2022/12/25 11:32:54;;;;;;;4.55;3.50;;;11.80;99.90;;;;;;4999203;28;20123;-72
2022/12/25 11:35:24;;;;;;;4.45;3.65;;;12.20;99.90;;;;;;5015419;28;20058;-75
2022/12/25 11:37:51;;;;;;;5.20;3.30;;;12.10;99.90;;;;;;5015009;28;20060;-76
2022/12/25 11:40:43;;;;;;;5.97;4.10;;;11.90;99.90;;;;;;5014896;28;20045;-75
2022/12/25 11:43:35;;;;;;;11.02;6.03;;;12.10;99.90;;;;;;4997123;28;20045;-76
2022/12/25 11:46:12;;;;;;;8.10;5.15;;;12.00;99.90;;;;;;5014996;28;20046;-74
2022/12/25 11:48:54;;;;;;;8.98;4.97;;;12.20;99.90;;;;;;5014828;28;20041;-73
2022/12/25 11:51:25;;;;;;;5.03;3.22;;;12.20;99.90;;;;;;5014756;28;20044;-72
2022/12/25 11:53:57;;;;;;;4.20;3.35;;;11.90;99.90;;;;;;4998070;28;20053;-71
2022/12/25 11:56:27;;;;;;;5.63;3.60;;;11.80;99.90;;;;;;5014283;28;20112;-71
2022/12/25 11:59:13;;;;;;;3.55;2.67;;;11.70;99.90;;;;;;5014041;28;20117;-74
2022/12/25 12:01:43;;;;;;;3.47;2.70;;;12.00;99.90;;;;;;5008901;28;20421;-72
2022/12/25 12:04:25;;;;;;;5.28;3.28;;;12.20;99.90;;;;;;5014403;28;20061;-74
2022/12/25 12:07:07;;;;;;;8.10;5.15;;;12.50;99.90;;;;;;5014359;28;20420;-76
2022/12/25 12:09:55;;;;;;;9.38;5.65;;;12.30;99.90;;;;;;5016242;28;20042;-76
2022/12/25 12:12:45;;;;;;;7.20;5.20;;;12.40;99.90;;;;;;4998013;28;20132;-76
2022/12/25 12:15:42;;;;;;;8.30;3.30;;;12.40;99.90;;;;;;5013978;28;20101;-77
2022/12/25 12:18:18;;;;;;;6.32;4.13;;;12.30;99.90;;;;;;5014637;28;20045;-70
2022/12/25 12:21:04;;;;;;;5.70;3.80;;;12.60;99.90;;;;;;5016249;28;20026;-74
2022/12/25 12:23:48;;;;;;;4.00;2.75;;;12.90;99.90;;;;;;5015023;28;20038;-76
2022/12/25 12:26:21;;;;;;;3.70;2.55;;;12.90;99.90;;;;;;4982729;28;20621;-72
2022/12/25 12:28:49;;;;;;;3.58;2.42;;;12.50;99.90;;;;;;5013873;28;20038;-76
2022/12/25 12:31:19;;;;;;;4.13;2.28;;;12.50;99.90;;;;;;5013729;28;20069;-75
2022/12/25 12:33:58;;;;;;;4.72;3.00;;;12.40;99.90;;;;;;5015030;28;20527;-75
2022/12/25 12:36:26;;;;;;;4.05;2.83;;;12.70;99.90;;;;;;5015683;28;20543;-74
2022/12/25 12:38:55;;;;;;;4.30;2.80;;;12.50;99.90;;;;;;5013896;28;20042;-76
2022/12/25 12:41:39;;;;;;;4.25;2.60;;;12.80;99.90;;;;;;4996173;28;20057;-74
2022/12/25 12:44:06;;;;;;;4.45;3.33;;;12.90;99.90;;;;;;4997898;28;20489;-74
2022/12/25 12:46:50;;;;;;;3.50;2.58;;;13.00;99.90;;;;;;5013893;28;20038;-68
2022/12/25 12:49:26;;;;;;;4.07;2.88;;;12.50;99.90;;;;;;4998248;28;20104;-74
2022/12/25 12:52:40;;;;;;;4.43;2.60;;;12.60;99.90;;;;;;5013981;28;20093;-75
2022/12/25 12:55:12;;;;;;;4.13;2.53;;;12.70;99.90;;;;;;4987967;28;20049;-74
2022/12/25 12:57:41;;;;;;;2.97;2.30;;;12.90;99.90;;;;;;4996366;28;20108;-76
2022/12/25 13:00:20;;;;;;;4.30;2.70;;;12.80;99.90;;;;;;5013294;28;20068;-75
2022/12/25 13:03:14;;;;;;;4.10;1.85;;;12.70;99.90;;;;;;5010440;28;20095;-72
2022/12/25 13:05:52;;;;;;;3.20;2.22;;;12.60;99.90;;;;;;5013573;28;20511;-73
2022/12/25 13:08:42;;;;;;;2.85;2.05;;;12.70;99.90;;;;;;5010877;28;20037;-75
2022/12/25 13:11:26;;;;;;;1.70;1.42;;;12.90;99.90;;;;;;5012831;28;20045;-74
2022/12/25 13:13:54;;;;;;;3.58;2.38;;;13.20;99.90;;;;;;5013089;28;20057;-73
2022/12/25 13:16:33;;;;;;;2.10;1.90;;;13.30;99.90;;;;;;5012869;28;20112;-75
2022/12/25 13:19:06;;;;;;;2.90;2.07;;;13.60;99.90;;;;;;5012742;28;20036;-74
2022/12/25 13:21:33;;;;;;;4.50;1.73;;;13.40;99.90;;;;;;5013384;28;20064;-68
2022/12/25 13:24:16;;;;;;;2.63;2.17;;;13.40;99.90;;;;;;5013116;28;20038;-74
2022/12/25 13:26:42;;;;;;;3.08;2.08;;;13.50;99.90;;;;;;5012865;28;20438;-77
2022/12/25 13:29:29;;;;;;;3.92;2.53;;;13.60;99.90;;;;;;5012107;28;20125;-76
2022/12/25 13:31:57;;;;;;;4.30;2.97;;;13.60;99.90;;;;;;5013064;28;20042;-74
2022/12/25 13:34:33;;;;;;;4.53;2.90;;;13.70;99.90;;;;;;4979778;28;20057;-71
2022/12/25 13:37:09;;;;;;;3.33;2.33;;;13.70;99.90;;;;;;5012926;28;20121;-67
2022/12/25 13:39:37;;;;;;;4.00;2.53;;;13.80;99.90;;;;;;4995198;28;20033;-67
2022/12/25 13:42:05;;;;;;;3.47;2.33;;;14.00;99.90;;;;;;5013375;28;20052;-67
2022/12/25 13:45:06;;;;;;;2.72;1.95;;;14.20;99.90;;;;;;5014167;28;20049;-70
2022/12/25 13:47:42;;;;;;;;;;;14.40;99.90;;;;;;5014565;28;20042;-67
2022/12/25 13:50:26;;;;;;;2.67;1.80;;;14.50;99.90;;;;;;5012568;28;19909;-68
2022/12/25 13:52:56;;;;;;;5.03;2.72;;;14.70;99.90;;;;;;5012727;28;20129;-69
2022/12/25 13:55:25;;;;;;;2.83;1.90;;;14.70;99.90;;;;;;5013696;28;20156;-71
2022/12/25 13:58:03;;;;;;;3.35;2.03;;;14.80;99.90;;;;;;5013521;28;20037;-66
2022/12/25 14:00:36;;;;;;;2.85;2.00;;;14.80;99.90;;;;;;5012424;28;20042;-68
2022/12/25 14:03:06;;;;;;;3.33;1.70;;;14.90;99.90;;;;;;5012722;28;20030;-67
2022/12/25 14:05:37;;;;;;;2.38;1.75;;;14.90;99.90;;;;;;5013091;28;20080;-76
2022/12/25 14:08:10;;;;;;;;;;;15.00;99.90;;;;;;5013940;28;20125;-71
2022/12/25 14:10:37;;;;;;;;;;;15.10;99.90;;;;;;5014425;28;19909;-73
2022/12/25 14:13:04;;;;;;;;;;;15.00;99.90;;;;;;5012702;28;19909;-74
2022/12/25 14:15:31;;;;;;;;;;;15.20;99.90;;;;;;5012820;28;19924;-68
2022/12/25 14:17:57;;;;;;;;;;;15.20;99.90;;;;;;5013776;28;19909;-67
2022/12/25 14:20:24;;;;;;;;;;;15.20;99.90;;;;;;4997014;28;19909;-67
2022/12/25 14:22:52;;;;;;;;;;;15.10;99.90;;;;;;5014520;28;20415;-72
2022/12/25 14:25:17;;;;;;;;;;;15.00;99.90;;;;;;4996341;28;19999;-67
2022/12/25 14:27:47;;;;;;;;;;;15.00;99.90;;;;;;5012625;28;19999;-67
2022/12/25 14:30:13;;;;;;;;;;;15.00;99.90;;;;;;4994798;28;20272;-68
2022/12/25 14:32:42;;;;;;;;;;;14.90;99.90;;;;;;5012866;28;19909;-67
2022/12/25 14:35:09;;;;;;;;;;;14.80;99.90;;;;;;4994904;28;19917;-68
2022/12/25 14:37:37;;;;;;;;;;;14.70;99.90;;;;;;4998713;28;20363;-74
2022/12/25 14:40:17;;;;;;;;;;;14.70;99.90;;;;;;4998598;28;19936;-67
2022/12/25 14:42:52;;;;;;;;;;;14.80;99.90;;;;;;5016289;28;19909;-68
2022/12/25 14:45:25;;;;;;;;;;;14.80;99.90;;;;;;5015956;28;19909;-68
2022/12/25 14:47:52;;;;;;;;;;;14.80;99.90;;;;;;5015903;28;19975;-72
2022/12/25 14:50:29;;;;;;;;;;;14.70;99.90;;;;;;5016353;28;19996;-68
2022/12/25 14:52:55;;;;;;;;;;;14.80;99.90;;;;;;5016464;28;19913;-68
2022/12/25 14:55:26;;;;;;;;;;;14.80;99.90;;;;;;5016923;28;19917;-69
2022/12/25 14:57:57;;;;;;;;;;;14.80;99.90;;;;;;5017920;28;19916;-72
2022/12/25 15:00:25;;;;;;;;;;;14.70;99.90;;;;;;4998920;28;19909;-71
2022/12/25 15:02:53;;;;;;;;;;;14.60;99.90;;;;;;4999329;28;20345;-72
2022/12/25 15:05:26;;;;;;;;;;;14.60;99.90;;;;;;5016889;28;20004;-67